createdAt,value
2018-12-18T00:00:35.298Z,5.40
2018-12-18T00:03:02.803Z,5.40
2018-12-18T00:05:34.290Z,5.40
2018-12-18T00:08:02.122Z,5.40
2018-12-18T00:10:35.401Z,5.40
2018-12-18T00:13:02.879Z,5.40
2018-12-18T00:15:30.377Z,5.40
2018-12-18T00:17:57.896Z,5.40
2018-12-18T00:20:25.533Z,5.30
2018-12-18T00:22:53.055Z,5.30
2018-12-18T00:25:20.572Z,5.30
2018-12-18T00:27:48.145Z,5.30
2018-12-18T00:30:15.808Z,5.40
2018-12-18T00:32:43.326Z,5.40
2018-12-18T00:35:10.837Z,5.50
2018-12-18T00:37:38.362Z,5.50
2018-12-18T00:40:06.109Z,5.50
2018-12-18T00:42:33.975Z,5.50
2018-12-18T00:45:01.539Z,5.50
2018-12-18T00:47:29.116Z,5.50
2018-12-18T00:49:56.646Z,5.50
2018-12-18T00:52:24.164Z,5.60
2018-12-18T00:54:51.678Z,5.60
2018-12-18T00:57:19.189Z,5.60
2018-12-18T00:59:46.721Z,5.60
2018-12-18T01:02:14.248Z,5.60
2018-12-18T01:04:41.748Z,5.60
2018-12-18T01:07:09.378Z,5.60
2018-12-18T01:09:36.879Z,5.60
2018-12-18T01:12:04.481Z,5.60
2018-12-18T01:14:32.030Z,5.60
2018-12-18T01:16:59.536Z,5.60
2018-12-18T01:19:27.191Z,5.50
2018-12-18T01:21:54.921Z,5.50
2018-12-18T01:24:22.429Z,5.40
2018-12-18T01:26:49.918Z,5.40
2018-12-18T01:29:17.484Z,5.40
2018-12-18T01:31:45.072Z,5.40
2018-12-18T01:34:12.602Z,5.40
2018-12-18T01:36:40.085Z,5.40
2018-12-18T01:39:07.619Z,5.40
2018-12-18T01:41:35.110Z,5.40
2018-12-18T01:44:02.760Z,5.40
2018-12-18T01:46:30.264Z,5.40
2018-12-18T01:48:57.765Z,5.40
2018-12-18T01:51:25.288Z,5.40
2018-12-18T01:53:52.811Z,5.40
2018-12-18T01:56:20.360Z,5.40
2018-12-18T01:58:47.884Z,5.40
2018-12-18T02:01:15.385Z,5.40
2018-12-18T02:03:42.900Z,5.40
2018-12-18T02:06:10.405Z,5.40
2018-12-18T02:08:37.921Z,5.40
2018-12-18T02:11:05.414Z,5.40
2018-12-18T02:13:33.015Z,5.40
2018-12-18T02:16:00.537Z,5.30
2018-12-18T02:18:28.053Z,5.30
2018-12-18T02:20:55.816Z,5.20
2018-12-18T02:23:23.345Z,5.20
2018-12-18T02:25:50.899Z,5.20
2018-12-18T02:28:18.385Z,5.20
2018-12-18T02:30:46.083Z,5.20
2018-12-18T02:33:13.584Z,5.20
2018-12-18T02:35:41.321Z,5.20
2018-12-18T02:38:08.837Z,5.20
2018-12-18T02:40:36.411Z,5.20
2018-12-18T02:43:03.905Z,5.30
2018-12-18T02:45:31.446Z,5.20
2018-12-18T02:47:59.056Z,5.30
2018-12-18T02:50:26.884Z,5.30
2018-12-18T02:52:54.417Z,5.30
2018-12-18T02:55:21.915Z,5.30
2018-12-18T02:57:49.545Z,5.30
2018-12-18T03:00:17.124Z,5.30
2018-12-18T03:02:44.642Z,5.30
2018-12-18T03:05:12.480Z,5.30
2018-12-18T03:07:39.974Z,5.30
2018-12-18T03:10:07.601Z,5.30
2018-12-18T03:12:35.105Z,5.30
2018-12-18T03:15:02.740Z,5.30
2018-12-18T03:17:30.279Z,5.30
2018-12-18T03:19:57.760Z,5.20
2018-12-18T03:22:25.273Z,5.30
2018-12-18T03:24:52.796Z,5.20
2018-12-18T03:27:20.301Z,5.20
2018-12-18T03:29:47.812Z,5.30
2018-12-18T03:32:16.528Z,5.20
2018-12-18T03:34:44.044Z,5.20
2018-12-18T03:37:11.666Z,5.20
2018-12-18T03:39:39.170Z,5.20
2018-12-18T03:42:06.749Z,5.10
2018-12-18T03:44:34.450Z,5.10
2018-12-18T03:47:01.960Z,5.10
2018-12-18T03:49:29.464Z,5.10
2018-12-18T03:51:56.984Z,5.10
2018-12-18T03:54:24.495Z,5.10
2018-12-18T03:56:52.009Z,5.10
2018-12-18T03:59:19.596Z,5.10
2018-12-18T04:01:47.149Z,5.10
2018-12-18T04:04:14.854Z,5.10
2018-12-18T04:06:42.384Z,5.10
2018-12-18T04:09:09.892Z,5.10
2018-12-18T04:11:39.432Z,5.10
2018-12-18T04:14:07.041Z,5.10
2018-12-18T04:16:34.559Z,5.10
2018-12-18T04:19:02.063Z,5.10
2018-12-18T04:21:29.601Z,5.10
2018-12-18T04:23:57.123Z,5.20
2018-12-18T04:26:24.667Z,5.20
2018-12-18T04:28:52.446Z,5.20
2018-12-18T04:31:19.938Z,5.20
2018-12-18T04:33:47.519Z,5.20
2018-12-18T04:36:15.034Z,5.20
2018-12-18T04:38:42.544Z,5.30
2018-12-18T04:41:10.076Z,5.20
2018-12-18T04:43:37.767Z,5.30
2018-12-18T04:46:05.352Z,5.20
2018-12-18T04:48:32.869Z,5.30
2018-12-18T04:51:00.397Z,5.20
2018-12-18T04:53:27.930Z,5.30
2018-12-18T04:55:55.529Z,5.30
2018-12-18T04:58:23.252Z,5.30
2018-12-18T05:00:50.789Z,5.30
2018-12-18T05:03:18.282Z,5.30
2018-12-18T05:05:45.864Z,5.30
2018-12-18T05:08:13.426Z,5.30
2018-12-18T05:10:40.928Z,5.20
2018-12-18T05:13:08.451Z,5.20
2018-12-18T05:15:36.061Z,5.20
2018-12-18T05:18:03.572Z,5.10
2018-12-18T05:20:31.180Z,5.00
2018-12-18T05:22:58.691Z,5.00
2018-12-18T05:25:26.182Z,4.90
2018-12-18T05:27:53.677Z,4.90
2018-12-18T05:30:21.420Z,4.80
2018-12-18T05:32:48.909Z,4.70
2018-12-18T05:35:16.433Z,4.70
2018-12-18T05:37:43.942Z,4.70
2018-12-18T05:40:11.562Z,4.60
2018-12-18T05:42:39.106Z,4.50
2018-12-18T05:45:06.729Z,4.50
2018-12-18T05:47:34.268Z,4.40
2018-12-18T05:50:01.987Z,4.40
2018-12-18T05:52:29.494Z,4.40
2018-12-18T05:54:57.103Z,4.40
2018-12-18T05:57:24.604Z,4.40
2018-12-18T05:59:52.323Z,4.40
2018-12-18T06:02:19.821Z,4.40
2018-12-18T06:04:47.341Z,4.40
2018-12-18T06:07:14.976Z,4.50
2018-12-18T06:09:42.663Z,4.50
2018-12-18T06:12:10.219Z,4.50
2018-12-18T06:14:37.882Z,4.50
2018-12-18T06:17:05.388Z,4.50
2018-12-18T06:19:32.904Z,4.50
2018-12-18T06:22:00.392Z,4.60
2018-12-18T06:24:27.906Z,4.60
2018-12-18T06:26:55.423Z,4.70
2018-12-18T06:29:22.925Z,4.70
2018-12-18T06:31:50.441Z,4.70
2018-12-18T06:34:17.997Z,4.80
2018-12-18T06:36:45.520Z,4.80
2018-12-18T06:39:13.009Z,4.80
2018-12-18T06:41:40.615Z,4.90
2018-12-18T06:44:08.100Z,4.90
2018-12-18T06:46:35.618Z,4.90
2018-12-18T06:49:03.139Z,4.90
2018-12-18T06:51:30.642Z,5.00
2018-12-18T06:53:58.200Z,4.90
2018-12-18T06:56:25.715Z,5.00
2018-12-18T06:58:53.236Z,4.90
2018-12-18T07:01:20.744Z,4.30
2018-12-18T07:03:48.289Z,5.00
2018-12-18T07:06:16.006Z,5.00
2018-12-18T07:08:43.493Z,5.00
2018-12-18T07:11:11.014Z,5.00
2018-12-18T07:13:38.521Z,5.00
2018-12-18T07:16:06.020Z,5.00
2018-12-18T07:18:33.613Z,5.00
2018-12-18T07:21:01.119Z,4.90
2018-12-18T07:23:28.637Z,4.90
2018-12-18T07:25:56.132Z,4.90
2018-12-18T07:28:23.648Z,4.90
2018-12-18T07:30:51.159Z,4.80
2018-12-18T07:33:18.671Z,4.80
2018-12-18T07:35:46.158Z,4.70
2018-12-18T07:38:13.759Z,4.70
2018-12-18T07:40:41.310Z,4.70
2018-12-18T07:43:08.796Z,4.70
2018-12-18T07:45:36.323Z,4.70
2018-12-18T07:48:03.933Z,4.80
2018-12-18T07:50:31.835Z,4.70
2018-12-18T07:52:59.341Z,4.70
2018-12-18T07:55:26.877Z,4.70
2018-12-18T07:57:54.364Z,4.80
2018-12-18T08:00:21.940Z,4.80
2018-12-18T08:02:49.444Z,4.80
2018-12-18T08:05:16.942Z,4.80
2018-12-18T08:07:44.648Z,4.80
2018-12-18T08:10:12.260Z,4.90
2018-12-18T08:12:39.894Z,4.90
2018-12-18T08:15:07.519Z,4.90
2018-12-18T08:17:35.043Z,5.00
2018-12-18T08:20:02.717Z,5.00
2018-12-18T08:22:30.250Z,5.00
2018-12-18T08:24:57.774Z,5.00
2018-12-18T08:27:25.287Z,5.00
2018-12-18T08:29:52.829Z,5.10
2018-12-18T08:32:20.348Z,5.10
2018-12-18T08:34:47.917Z,5.10
2018-12-18T08:37:15.417Z,5.10
2018-12-18T08:39:42.968Z,5.10
2018-12-18T08:42:10.465Z,5.10
2018-12-18T08:44:37.983Z,5.10
2018-12-18T08:47:05.486Z,5.20
2018-12-18T08:49:33.156Z,5.20
2018-12-18T08:52:00.920Z,5.30
2018-12-18T08:54:28.430Z,5.20
2018-12-18T08:56:55.940Z,5.30
2018-12-18T08:59:23.438Z,5.30
2018-12-18T09:01:50.996Z,5.30
2018-12-18T09:04:18.550Z,5.40
2018-12-18T09:06:46.173Z,5.40
2018-12-18T09:09:13.832Z,5.40
2018-12-18T09:11:41.310Z,5.40
2018-12-18T09:14:08.827Z,5.50
2018-12-18T09:16:42.072Z,5.50
2018-12-18T09:19:09.600Z,5.50
2018-12-18T09:21:37.111Z,5.60
2018-12-18T09:24:04.648Z,5.70
2018-12-18T09:26:32.280Z,5.70
2018-12-18T09:28:59.932Z,5.80
2018-12-18T09:31:27.433Z,5.80
2018-12-18T09:33:55.255Z,5.90
2018-12-18T09:36:22.737Z,6.00
2018-12-18T09:38:56.062Z,6.00
2018-12-18T09:41:25.948Z,6.10
2018-12-18T09:43:55.507Z,6.20
2018-12-18T09:46:23.000Z,6.20
2018-12-18T09:48:50.520Z,6.30
2018-12-18T09:51:18.120Z,6.30
2018-12-18T09:53:45.636Z,6.40
2018-12-18T09:56:13.149Z,6.50
2018-12-18T09:58:40.664Z,6.50
2018-12-18T10:01:08.268Z,6.50
2018-12-18T10:03:35.840Z,6.60
2018-12-18T10:06:03.404Z,6.70
2018-12-18T10:08:31.009Z,6.80
2018-12-18T10:10:58.660Z,6.80
2018-12-18T10:13:26.330Z,6.80
2018-12-18T10:15:53.836Z,6.90
2018-12-18T10:18:21.363Z,7.00
2018-12-18T10:20:49.023Z,7.00
2018-12-18T10:23:16.515Z,7.00
2018-12-18T10:25:44.021Z,7.10
2018-12-18T10:28:11.533Z,7.20
2018-12-18T10:30:39.028Z,7.20
2018-12-18T10:33:06.944Z,7.30
2018-12-18T10:35:36.634Z,7.40
2018-12-18T10:38:04.061Z,7.50
2018-12-18T10:40:31.557Z,7.50
2018-12-18T10:42:59.137Z,7.50
2018-12-18T10:45:26.741Z,7.60
2018-12-18T10:47:54.406Z,7.70
2018-12-18T10:50:21.884Z,7.80
2018-12-18T10:52:49.472Z,7.90
2018-12-18T10:55:17.000Z,8.00
2018-12-18T10:57:44.531Z,8.00
2018-12-18T11:00:15.940Z,8.10
2018-12-18T11:02:43.548Z,8.10
2018-12-18T11:05:11.040Z,8.10
2018-12-18T11:07:38.615Z,8.10
2018-12-18T11:10:06.421Z,8.20
2018-12-18T11:12:37.827Z,8.20
2018-12-18T11:15:05.640Z,8.30
2018-12-18T11:17:33.202Z,8.30
2018-12-18T11:20:00.781Z,8.30
2018-12-18T11:22:28.280Z,8.20
2018-12-18T11:24:55.809Z,8.30
2018-12-18T11:27:23.434Z,8.30
2018-12-18T11:29:50.935Z,8.30
2018-12-18T11:32:18.552Z,8.30
2018-12-18T11:34:46.032Z,8.30
2018-12-18T11:37:13.563Z,8.30
2018-12-18T11:39:41.092Z,8.40
2018-12-18T11:42:08.673Z,8.40
2018-12-18T11:44:36.855Z,8.40
2018-12-18T11:47:04.478Z,8.40
2018-12-18T11:49:32.040Z,8.30
2018-12-18T11:51:59.558Z,8.30
2018-12-18T11:54:27.207Z,8.30
2018-12-18T11:56:54.702Z,8.20
2018-12-18T11:59:22.368Z,8.20
2018-12-18T12:01:49.894Z,8.20
2018-12-18T12:04:17.477Z,8.20
2018-12-18T12:06:45.057Z,8.30
2018-12-18T12:09:12.560Z,8.20
2018-12-18T12:11:40.430Z,8.20
2018-12-18T12:14:08.024Z,8.20
2018-12-18T12:16:35.539Z,8.30
2018-12-18T12:19:03.160Z,8.40
2018-12-18T12:21:30.673Z,8.40
2018-12-18T12:23:58.185Z,8.30
2018-12-18T12:26:31.323Z,8.30
2018-12-18T12:28:58.857Z,8.20
2018-12-18T12:31:26.410Z,8.10
2018-12-18T12:33:54.013Z,8.00
2018-12-18T12:36:21.633Z,7.90
2018-12-18T12:38:49.124Z,7.80
2018-12-18T12:41:16.650Z,7.70
2018-12-18T12:43:44.307Z,7.60
2018-12-18T12:46:12.012Z,7.50
2018-12-18T12:48:45.093Z,7.30
2018-12-18T12:51:12.637Z,7.30
2018-12-18T12:53:40.129Z,7.20
2018-12-18T12:56:07.669Z,7.10
2018-12-18T12:58:35.206Z,7.00
2018-12-18T13:01:02.732Z,7.00
2018-12-18T13:03:30.327Z,6.90
2018-12-18T13:05:57.875Z,6.90
2018-12-18T13:08:25.365Z,6.90
2018-12-18T13:10:52.884Z,6.90
2018-12-18T13:13:20.496Z,7.00
2018-12-18T13:15:48.200Z,6.90
2018-12-18T13:18:15.891Z,6.90
2018-12-18T13:20:43.774Z,6.90
2018-12-18T13:23:11.346Z,6.80
2018-12-18T13:25:38.889Z,6.70
2018-12-18T13:28:06.506Z,6.80
2018-12-18T13:30:34.163Z,6.80
2018-12-18T13:33:01.694Z,6.80
2018-12-18T13:35:29.244Z,6.80
2018-12-18T13:37:57.065Z,6.80
2018-12-18T13:40:24.626Z,6.80
2018-12-18T13:42:52.167Z,6.80
2018-12-18T13:45:19.760Z,6.80
2018-12-18T13:47:47.284Z,6.80
2018-12-18T13:50:14.843Z,6.80
2018-12-18T13:52:42.400Z,6.80
2018-12-18T13:55:09.948Z,6.70
2018-12-18T13:57:37.473Z,6.70
2018-12-18T14:00:05.713Z,6.70
2018-12-18T14:02:33.246Z,6.60
2018-12-18T14:05:00.830Z,6.60
2018-12-18T14:07:28.366Z,6.60
2018-12-18T14:09:56.172Z,6.50
2018-12-18T14:12:23.676Z,6.50
2018-12-18T14:14:51.356Z,6.50
2018-12-18T14:17:18.898Z,6.50
2018-12-18T14:19:46.448Z,6.40
2018-12-18T14:22:14.182Z,6.40
2018-12-18T14:24:41.728Z,6.40
2018-12-18T14:27:09.288Z,6.40
2018-12-18T14:29:37.020Z,6.30
2018-12-18T14:32:04.519Z,6.30
2018-12-18T14:34:32.057Z,6.30
2018-12-18T14:36:59.605Z,6.20
2018-12-18T14:39:27.153Z,6.20
2018-12-18T14:41:54.710Z,6.20
2018-12-18T14:44:22.227Z,6.20
2018-12-18T14:46:49.918Z,6.20
2018-12-18T14:49:17.508Z,6.10
2018-12-18T14:51:45.097Z,6.10
2018-12-18T14:54:13.032Z,6.10
2018-12-18T14:56:40.573Z,6.00
2018-12-18T14:59:08.125Z,6.00
2018-12-18T15:01:35.693Z,6.00
2018-12-18T15:04:03.208Z,5.90
2018-12-18T15:06:30.787Z,5.90
2018-12-18T15:08:58.299Z,5.80
2018-12-18T15:11:25.936Z,5.80
2018-12-18T15:13:53.460Z,5.70
2018-12-18T15:16:21.110Z,5.70
2018-12-18T15:18:48.650Z,5.70
2018-12-18T15:21:16.174Z,5.60
2018-12-18T15:23:43.832Z,5.60
2018-12-18T15:26:11.412Z,5.60
2018-12-18T15:28:38.945Z,5.50
2018-12-18T15:31:06.778Z,5.50
2018-12-18T15:33:34.305Z,5.40
2018-12-18T15:36:01.921Z,5.40
2018-12-18T15:38:29.491Z,5.30
2018-12-18T15:40:57.062Z,5.30
2018-12-18T15:43:24.657Z,5.30
2018-12-18T15:45:52.195Z,5.30
2018-12-18T15:48:19.725Z,5.20
2018-12-18T15:50:47.292Z,5.20
2018-12-18T15:53:14.928Z,5.20
2018-12-18T15:55:42.453Z,5.10
2018-12-18T15:58:09.999Z,5.10
2018-12-18T16:00:37.519Z,5.00
2018-12-18T16:03:05.137Z,5.10
2018-12-18T16:05:32.681Z,5.10
2018-12-18T16:08:00.204Z,5.10
2018-12-18T16:10:27.843Z,5.00
2018-12-18T16:12:55.399Z,5.00
2018-12-18T16:15:23.096Z,5.00
2018-12-18T16:17:50.596Z,5.00
2018-12-18T16:20:18.153Z,5.00
2018-12-18T16:22:45.656Z,5.00
2018-12-18T16:25:13.262Z,5.00
2018-12-18T16:27:40.797Z,5.00
2018-12-18T16:30:08.449Z,4.90
2018-12-18T16:32:36.014Z,4.90
2018-12-18T16:35:03.647Z,4.90
2018-12-18T16:37:31.213Z,4.90
2018-12-18T16:39:58.786Z,4.90
2018-12-18T16:42:26.415Z,4.90
2018-12-18T16:44:53.926Z,4.80
2018-12-18T16:47:21.634Z,4.80
2018-12-18T16:49:49.189Z,4.80
2018-12-18T16:52:16.697Z,4.70
2018-12-18T16:54:44.216Z,4.70
2018-12-18T16:57:13.331Z,4.70
2018-12-18T16:59:41.021Z,4.60
2018-12-18T17:02:08.553Z,4.60
2018-12-18T17:04:36.146Z,4.50
2018-12-18T17:07:03.870Z,4.50
2018-12-18T17:09:31.390Z,4.40
2018-12-18T17:11:58.895Z,4.40
2018-12-18T17:14:26.506Z,4.40
2018-12-18T17:16:54.013Z,4.30
2018-12-18T17:19:22.441Z,4.30
2018-12-18T17:21:49.967Z,4.30
2018-12-18T17:24:17.477Z,4.30
2018-12-18T17:26:45.094Z,4.30
2018-12-18T17:29:12.590Z,4.30
2018-12-18T17:31:40.093Z,4.30
2018-12-18T17:34:07.649Z,4.30
2018-12-18T17:36:35.270Z,4.30
2018-12-18T17:39:02.853Z,4.30
2018-12-18T17:41:30.358Z,4.30
2018-12-18T17:43:58.017Z,4.30
2018-12-18T17:46:25.521Z,4.30
2018-12-18T17:48:53.017Z,4.40
2018-12-18T17:51:20.625Z,4.40
2018-12-18T17:53:48.153Z,4.40
2018-12-18T17:56:15.670Z,4.40
2018-12-18T17:58:43.372Z,4.50
2018-12-18T18:01:10.988Z,4.50
2018-12-18T18:03:38.514Z,4.50
2018-12-18T18:06:06.034Z,4.50
2018-12-18T18:08:33.568Z,4.60
2018-12-18T18:11:01.114Z,4.60
2018-12-18T18:13:28.642Z,4.50
2018-12-18T18:15:56.149Z,4.50
2018-12-18T18:18:23.685Z,4.50
2018-12-18T18:20:51.342Z,4.50
2018-12-18T18:23:18.856Z,4.50
2018-12-18T18:25:46.821Z,4.50
2018-12-18T18:28:14.444Z,4.60
2018-12-18T18:30:41.941Z,4.50
2018-12-18T18:33:09.480Z,4.60
2018-12-18T18:35:37.182Z,4.60
2018-12-18T18:38:04.694Z,4.60
2018-12-18T18:40:32.303Z,4.60
2018-12-18T18:42:59.830Z,4.60
2018-12-18T18:45:27.473Z,4.60
2018-12-18T18:47:55.033Z,4.60
2018-12-18T18:50:22.565Z,4.60
2018-12-18T18:52:50.133Z,4.60
2018-12-18T18:55:17.637Z,4.60
2018-12-18T18:57:45.239Z,4.60
2018-12-18T19:00:12.921Z,4.50
2018-12-18T19:02:40.437Z,4.60
2018-12-18T19:05:08.033Z,4.50
2018-12-18T19:07:35.756Z,4.60
2018-12-18T19:10:04.885Z,4.60
2018-12-18T19:12:32.405Z,4.60
2018-12-18T19:14:59.949Z,4.60
2018-12-18T19:17:27.454Z,4.60
2018-12-18T19:19:54.981Z,4.70
2018-12-18T19:22:22.492Z,4.70
2018-12-18T19:24:50.029Z,4.70
2018-12-18T19:27:17.529Z,4.70
2018-12-18T19:29:45.296Z,4.70
2018-12-18T19:32:12.837Z,4.60
2018-12-18T19:34:40.354Z,4.60
2018-12-18T19:37:07.874Z,4.60
2018-12-18T19:39:35.496Z,4.60
2018-12-18T19:42:03.040Z,4.60
2018-12-18T19:44:30.564Z,4.60
2018-12-18T19:46:58.125Z,4.60
2018-12-18T19:49:25.684Z,4.50
2018-12-18T19:51:53.279Z,4.60
2018-12-18T19:54:20.804Z,4.60
2018-12-18T19:56:48.358Z,4.60
2018-12-18T19:59:15.880Z,4.60
2018-12-18T20:01:43.421Z,4.60
2018-12-18T20:04:10.921Z,4.60
2018-12-18T20:06:38.455Z,4.60
2018-12-18T20:09:06.769Z,4.70
2018-12-18T20:11:34.396Z,4.80
2018-12-18T20:14:01.909Z,4.90
2018-12-18T20:16:29.473Z,4.90
2018-12-18T20:18:57.005Z,5.10
2018-12-18T20:21:24.539Z,5.10
2018-12-18T20:23:52.085Z,5.10
2018-12-18T20:26:19.601Z,5.20
2018-12-18T20:28:47.133Z,5.20
2018-12-18T20:31:14.632Z,5.30
2018-12-18T20:33:42.197Z,5.30
2018-12-18T20:36:09.712Z,5.30
2018-12-18T20:38:37.249Z,5.30
2018-12-18T20:41:04.767Z,5.30
2018-12-18T20:43:32.280Z,5.30
2018-12-18T20:45:59.813Z,5.30
2018-12-18T20:48:27.316Z,5.40
2018-12-18T20:50:54.997Z,5.40
2018-12-18T20:53:22.549Z,5.40
2018-12-18T20:55:51.749Z,5.40
2018-12-18T20:58:19.445Z,5.40
2018-12-18T21:00:47.118Z,5.40
2018-12-18T21:03:14.640Z,5.40
2018-12-18T21:05:42.152Z,5.40
2018-12-18T21:08:09.770Z,5.40
2018-12-18T21:10:37.458Z,5.30
2018-12-18T21:13:10.768Z,5.30
2018-12-18T21:15:38.270Z,5.40
2018-12-18T21:18:05.758Z,5.40
2018-12-18T21:20:33.668Z,5.40
2018-12-18T21:23:01.193Z,5.40
2018-12-18T21:25:28.718Z,5.40
2018-12-18T21:27:56.325Z,5.30
2018-12-18T21:30:23.825Z,5.30
2018-12-18T21:32:51.450Z,5.30
2018-12-18T21:35:18.938Z,5.30
2018-12-18T21:37:46.472Z,5.30
2018-12-18T21:40:13.975Z,5.30
2018-12-18T21:42:41.581Z,5.20
2018-12-18T21:45:09.093Z,5.20
2018-12-18T21:47:36.592Z,5.10
2018-12-18T21:50:05.532Z,5.10
2018-12-18T21:52:33.046Z,5.10
2018-12-18T21:55:00.544Z,5.00
2018-12-18T21:57:28.069Z,5.10
2018-12-18T21:59:55.580Z,5.00
2018-12-18T22:02:23.118Z,5.00
2018-12-18T22:04:50.604Z,5.00
2018-12-18T22:07:18.147Z,5.00
2018-12-18T22:09:45.740Z,5.00
2018-12-18T22:12:13.232Z,5.00
2018-12-18T22:14:40.895Z,5.00
2018-12-18T22:17:08.397Z,5.00
2018-12-18T22:19:35.924Z,5.00
2018-12-18T22:22:03.617Z,5.00
2018-12-18T22:24:31.301Z,5.00
2018-12-18T22:26:58.863Z,5.00
2018-12-18T22:29:26.419Z,5.00
2018-12-18T22:31:53.977Z,5.00
2018-12-18T22:34:21.457Z,5.10
2018-12-18T22:36:49.053Z,5.00
2018-12-18T22:39:16.540Z,5.00
2018-12-18T22:41:44.076Z,5.10
2018-12-18T22:44:11.588Z,5.00
2018-12-18T22:46:39.149Z,5.00
2018-12-18T22:49:06.643Z,5.10
2018-12-18T22:51:34.149Z,5.00
2018-12-18T22:54:01.723Z,5.10
2018-12-18T22:56:29.256Z,5.10
2018-12-18T22:58:56.769Z,5.10
2018-12-18T23:01:30.145Z,5.10
2018-12-18T23:03:57.663Z,5.10
2018-12-18T23:06:25.327Z,5.10
2018-12-18T23:08:52.924Z,5.20
2018-12-18T23:11:20.600Z,5.20
2018-12-18T23:13:48.160Z,5.20
2018-12-18T23:16:15.870Z,5.20
2018-12-18T23:18:43.440Z,5.20
2018-12-18T23:21:10.937Z,5.20
2018-12-18T23:23:38.484Z,5.20
2018-12-18T23:26:05.978Z,5.20
2018-12-18T23:28:33.508Z,5.20
2018-12-18T23:31:01.137Z,5.20
2018-12-18T23:33:28.665Z,5.20
2018-12-18T23:35:56.181Z,5.10
2018-12-18T23:38:23.715Z,5.10
2018-12-18T23:40:51.229Z,5.10
2018-12-18T23:43:18.924Z,5.00
2018-12-18T23:45:46.504Z,5.00
2018-12-18T23:48:14.542Z,5.00
2018-12-18T23:50:42.084Z,5.00
2018-12-18T23:53:09.665Z,5.00
2018-12-18T23:55:37.164Z,5.00
2018-12-18T23:58:04.686Z,5.00
